Time;durP1;ratioP1;P1;durP2;ratioP2;P2;SDS_P1;SDS_P2;PMS_P1;PMS_P2;Temp;Humidity;BMP_temperature;BMP_pressure;BME280_temperature;BME280_humidity;BME280_pressure;Samples;Min_cycle;Max_cycle;Signal;HPM_P1;HPM_P2
2022/04/20 00:01:24;;;;;;;7.03;5.30;;;4.90;99.90;;;;;;5076825;28;20224;-85
2022/04/20 00:03:50;;;;;;;5.80;5.40;;;4.80;99.90;;;;;;5078119;28;20568;-85
2022/04/20 00:06:16;;;;;;;5.97;5.37;;;4.70;99.90;;;;;;5100757;28;20183;-85
2022/04/20 00:08:41;;;;;;;6.67;5.53;;;4.70;99.90;;;;;;5100708;28;20183;-85
2022/04/20 00:11:08;;;;;;;5.47;5.07;;;4.60;99.90;;;;;;5077396;28;20236;-86
2022/04/20 00:13:34;;;;;;;6.27;5.77;;;4.60;99.90;;;;;;5085573;28;20197;-85
2022/04/20 00:16:00;;;;;;;6.87;6.17;;;4.70;99.90;;;;;;5078824;28;20174;-85
2022/04/20 00:18:26;;;;;;;7.17;6.57;;;4.70;99.90;;;;;;5078445;28;20172;-85
2022/04/20 00:20:52;;;;;;;6.73;6.13;;;4.70;99.90;;;;;;5077314;28;20244;-85
2022/04/20 00:23:18;;;;;;;6.87;6.27;;;4.80;99.90;;;;;;5077406;28;20729;-85
2022/04/20 00:25:43;;;;;;;6.20;5.70;;;4.90;99.90;;;;;;5076544;28;20165;-85
2022/04/20 00:28:09;;;;;;;7.30;6.60;;;4.90;99.90;;;;;;5083398;28;20176;-85
2022/04/20 00:30:35;;;;;;;7.27;6.57;;;4.90;99.90;;;;;;5077052;28;20168;-85
2022/04/20 00:33:01;;;;;;;7.37;6.40;;;4.90;99.90;;;;;;5058589;28;20207;-85
2022/04/20 00:35:27;;;;;;;7.70;7.10;;;4.90;99.90;;;;;;5076413;28;20181;-85
2022/04/20 00:37:53;;;;;;;7.53;6.90;;;4.90;99.90;;;;;;5076379;28;20537;-84
2022/04/20 00:40:18;;;;;;;7.10;6.40;;;5.00;99.90;;;;;;5059356;28;20186;-85
2022/04/20 00:42:44;;;;;;;6.90;6.40;;;5.00;99.90;;;;;;5075940;28;20184;-85
2022/04/20 00:45:12;;;;;;;6.47;5.87;;;4.80;99.90;;;;;;5075862;28;20523;-85
2022/04/20 00:47:39;;;;;;;6.90;6.20;;;4.70;99.90;;;;;;5075981;28;20612;-85
2022/04/20 00:50:06;;;;;;;6.90;6.30;;;4.70;99.90;;;;;;5075945;28;20573;-85
2022/04/20 00:52:32;;;;;;;6.60;6.00;;;4.70;99.90;;;;;;5075981;28;20634;-85
2022/04/20 00:54:58;;;;;;;7.00;6.47;;;4.70;99.90;;;;;;5075646;28;20173;-85
2022/04/20 00:57:25;;;;;;;6.87;6.23;;;4.70;99.90;;;;;;5075678;28;20164;-85
2022/04/20 00:59:53;;;;;;;10.17;5.90;;;4.70;99.90;;;;;;5075694;28;20605;-85
2022/04/20 01:02:21;;;;;;;6.70;6.10;;;4.50;99.90;;;;;;5075667;28;20174;-85
2022/04/20 01:04:47;;;;;;;6.00;5.50;;;4.40;99.90;;;;;;5075467;28;20201;-85
2022/04/20 01:07:15;;;;;;;6.90;6.20;;;4.40;99.90;;;;;;5075327;28;20708;-85
2022/04/20 01:09:41;;;;;;;6.70;6.10;;;4.50;99.90;;;;;;5056204;28;20265;-86
2022/04/20 01:12:08;;;;;;;6.63;5.80;;;4.40;99.90;;;;;;5053894;28;20232;-85
2022/04/20 01:14:35;;;;;;;6.87;6.13;;;4.40;99.90;;;;;;5055341;28;20172;-85
2022/04/20 01:17:02;;;;;;;6.57;6.00;;;4.40;99.90;;;;;;5055430;28;20204;-85
2022/04/20 01:19:38;;;;;;;7.17;6.57;;;4.30;99.90;;;;;;5055259;28;20165;-86
2022/04/20 01:22:05;;;;;;;6.87;6.23;;;4.30;99.90;;;;;;5055180;28;20525;-85
2022/04/20 01:24:32;;;;;;;7.40;6.00;;;4.30;99.90;;;;;;5055032;28;20207;-85
2022/04/20 01:26:58;;;;;;;7.27;6.67;;;4.30;99.90;;;;;;5055001;28;20172;-85
2022/04/20 01:29:25;;;;;;;6.97;6.37;;;4.30;99.90;;;;;;5055216;28;20180;-85
2022/04/20 01:31:51;;;;;;;6.57;5.97;;;4.30;99.90;;;;;;5054906;28;20495;-85
2022/04/20 01:34:16;;;;;;;6.70;5.97;;;4.20;99.90;;;;;;5054906;28;20174;-85
2022/04/20 01:36:42;;;;;;;7.13;6.50;;;4.30;99.90;;;;;;5054869;28;20173;-85
2022/04/20 01:39:08;;;;;;;7.07;6.37;;;4.40;99.90;;;;;;5054737;28;20174;-85
2022/04/20 01:41:34;;;;;;;6.87;6.27;;;4.30;99.90;;;;;;5054680;28;20537;-83
2022/04/20 01:43:59;;;;;;;6.30;5.60;;;4.20;99.90;;;;;;5054575;28;20228;-85
2022/04/20 01:46:25;;;;;;;6.63;5.90;;;4.30;99.90;;;;;;5054632;28;20168;-85
2022/04/20 01:48:51;;;;;;;9.40;5.93;;;4.20;99.90;;;;;;5054636;28;20253;-83
2022/04/20 01:54:01;;;;;;;9.00;6.17;;;4.10;99.90;;;;;;5054587;28;20220;-83
2022/04/20 01:56:27;;;;;;;7.07;6.37;;;4.10;99.90;;;;;;5054318;28;20172;-84
2022/04/20 01:58:52;;;;;;;6.90;6.27;;;4.10;99.90;;;;;;5054376;28;20569;-84
2022/04/20 02:04:03;;;;;;;7.07;6.37;;;4.10;99.90;;;;;;5054485;28;20240;-83
2022/04/20 02:06:29;;;;;;;7.83;6.40;;;4.10;99.90;;;;;;5054211;28;20165;-84
2022/04/20 02:08:55;;;;;;;6.97;6.37;;;4.10;99.90;;;;;;5054346;28;20744;-83
2022/04/20 02:11:21;;;;;;;6.97;6.47;;;4.00;99.90;;;;;;5053996;28;20224;-83
2022/04/20 02:13:47;;;;;;;7.67;6.87;;;4.00;99.90;;;;;;5054165;28;20170;-84
2022/04/20 02:16:12;;;;;;;6.67;6.07;;;4.00;99.90;;;;;;5054426;28;20183;-84
2022/04/20 02:18:38;;;;;;;8.17;6.67;;;4.00;99.90;;;;;;5054068;28;20202;-85
2022/04/20 02:21:04;;;;;;;7.03;6.43;;;4.10;99.90;;;;;;5053656;28;20178;-83
2022/04/20 02:23:29;;;;;;;9.27;6.90;;;3.90;99.90;;;;;;5053952;28;20224;-86
2022/04/20 02:25:55;;;;;;;6.90;6.23;;;3.90;99.90;;;;;;5053941;28;20186;-83
2022/04/20 02:28:21;;;;;;;7.27;6.57;;;3.80;99.90;;;;;;5053926;28;20516;-84
2022/04/20 02:30:47;;;;;;;6.87;6.27;;;3.80;99.90;;;;;;5053990;28;20224;-84
2022/04/20 02:33:13;;;;;;;7.53;6.80;;;3.80;99.90;;;;;;5051168;28;20189;-83
2022/04/20 02:35:40;;;;;;;7.07;6.47;;;3.80;99.90;;;;;;5054576;28;20178;-85
2022/04/20 02:38:10;;;;;;;8.60;7.10;;;3.70;99.90;;;;;;5053721;28;20174;-85
2022/04/20 02:40:40;;;;;;;9.73;6.50;;;3.70;99.90;;;;;;5051834;28;20648;-86
2022/04/20 02:43:07;;;;;;;9.30;6.80;;;3.70;99.90;;;;;;5052195;28;20198;-86
2022/04/20 02:45:32;;;;;;;8.13;6.50;;;3.70;99.90;;;;;;5052297;28;20377;-83
2022/04/20 02:47:59;;;;;;;9.40;7.23;;;3.70;99.90;;;;;;5053722;28;20180;-84
2022/04/20 02:50:25;;;;;;;7.70;6.53;;;3.80;99.90;;;;;;5051871;28;20180;-84
2022/04/20 02:52:51;;;;;;;7.70;6.80;;;3.70;99.90;;;;;;5053486;28;20516;-84
2022/04/20 02:55:17;;;;;;;8.27;6.50;;;3.60;99.90;;;;;;5052068;28;20274;-84
2022/04/20 02:57:42;;;;;;;9.07;6.90;;;3.70;99.90;;;;;;5057817;28;20193;-83
2022/04/20 03:00:09;;;;;;;6.60;6.00;;;3.80;99.90;;;;;;5053986;28;20174;-84
2022/04/20 03:02:35;;;;;;;7.10;6.17;;;3.80;99.90;;;;;;5053054;28;20226;-84
2022/04/20 03:05:00;;;;;;;9.13;5.83;;;3.80;99.90;;;;;;5052107;28;20214;-83
2022/04/20 03:07:27;;;;;;;7.40;6.00;;;3.80;99.90;;;;;;5053170;28;20665;-84
2022/04/20 03:09:53;;;;;;;5.87;5.37;;;3.80;99.90;;;;;;5053011;28;20171;-84
2022/04/20 03:12:18;;;;;;;6.33;5.73;;;3.80;99.90;;;;;;5052906;28;20189;-84
2022/04/20 03:14:44;;;;;;;6.70;5.27;;;3.80;99.90;;;;;;5052642;28;20179;-83
2022/04/20 03:17:10;;;;;;;5.60;5.20;;;3.80;99.90;;;;;;5052829;28;20171;-83
2022/04/20 03:19:36;;;;;;;6.27;5.70;;;3.80;99.90;;;;;;5051443;28;20190;-84
2022/04/20 03:22:02;;;;;;;5.37;5.00;;;3.90;99.90;;;;;;5052610;28;20168;-83
2022/04/20 03:24:28;;;;;;;6.03;5.50;;;3.90;99.90;;;;;;5052888;28;20548;-86
2022/04/20 03:26:53;;;;;;;5.70;5.20;;;3.90;99.90;;;;;;5053169;28;20162;-83
2022/04/20 03:29:19;;;;;;;5.47;5.07;;;3.80;99.90;;;;;;5051064;28;20273;-84
2022/04/20 03:31:45;;;;;;;5.27;4.87;;;3.80;99.90;;;;;;5052089;28;20175;-83
2022/04/20 03:34:13;;;;;;;6.23;5.63;;;3.80;99.90;;;;;;5052998;28;20181;-83
2022/04/20 03:36:39;;;;;;;5.80;5.30;;;3.80;99.90;;;;;;5052588;28;20172;-84
2022/04/20 03:39:04;;;;;;;5.57;5.07;;;3.80;99.90;;;;;;5052704;28;20172;-84
2022/04/20 03:41:30;;;;;;;5.63;5.23;;;3.80;99.90;;;;;;5052660;28;20174;-84
2022/04/20 03:43:56;;;;;;;5.80;5.40;;;3.80;99.90;;;;;;5034309;28;20226;-84
2022/04/20 03:46:23;;;;;;;5.33;4.83;;;3.70;99.90;;;;;;5052918;28;20166;-83
2022/04/20 03:48:50;;;;;;;5.53;5.13;;;3.70;99.90;;;;;;5052944;28;20166;-84
2022/04/20 03:51:16;;;;;;;5.87;5.47;;;3.70;99.90;;;;;;5052443;28;20166;-85
2022/04/20 03:53:42;;;;;;;5.80;5.30;;;3.60;99.90;;;;;;5052255;28;20660;-84
2022/04/20 03:56:07;;;;;;;5.57;5.17;;;3.60;99.90;;;;;;5052680;28;20170;-85
2022/04/20 03:58:33;;;;;;;5.60;5.10;;;3.60;99.90;;;;;;5052736;28;20178;-85
2022/04/20 04:01:00;;;;;;;5.30;4.90;;;3.60;99.90;;;;;;5052196;28;20635;-84
2022/04/20 04:03:26;;;;;;;5.83;5.43;;;3.60;99.90;;;;;;5052128;28;20195;-85
2022/04/20 04:05:52;;;;;;;7.37;5.90;;;3.50;99.90;;;;;;5052793;28;20236;-85
2022/04/20 04:08:18;;;;;;;6.30;5.80;;;3.40;99.90;;;;;;5034161;28;20176;-84
2022/04/20 04:10:44;;;;;;;6.60;5.97;;;3.50;99.90;;;;;;5050871;28;20576;-85
2022/04/20 04:13:12;;;;;;;6.47;5.90;;;3.50;99.90;;;;;;5052404;28;20688;-85
2022/04/20 04:15:38;;;;;;;6.50;5.90;;;3.50;99.90;;;;;;5052625;28;20260;-85
2022/04/20 04:18:04;;;;;;;6.10;5.57;;;3.50;99.90;;;;;;5051294;28;20230;-85
2022/04/20 04:20:31;;;;;;;6.27;5.80;;;3.40;99.90;;;;;;5052367;28;20204;-85
2022/04/20 04:22:56;;;;;;;6.70;6.00;;;3.50;99.90;;;;;;5052202;28;20257;-86
2022/04/20 04:25:22;;;;;;;7.00;6.40;;;3.50;99.90;;;;;;5052893;28;20264;-86
2022/04/20 04:27:48;;;;;;;8.10;6.27;;;3.50;99.90;;;;;;5053041;28;20177;-86
2022/04/20 04:30:15;;;;;;;6.93;6.23;;;3.50;99.90;;;;;;5050898;28;20174;-85
2022/04/20 04:32:41;;;;;;;8.47;6.27;;;3.50;99.90;;;;;;5052223;28;20626;-86
2022/04/20 04:35:08;;;;;;;11.20;6.97;;;3.50;99.90;;;;;;5050915;28;20179;-86
2022/04/20 04:37:34;;;;;;;7.80;6.53;;;3.40;99.90;;;;;;5052708;28;20210;-86
2022/04/20 04:40:01;;;;;;;11.30;7.60;;;3.30;99.90;;;;;;5052405;28;20171;-86
2022/04/20 04:42:27;;;;;;;9.13;6.43;;;3.40;99.90;;;;;;5051551;28;20180;-86
2022/04/20 04:44:53;;;;;;;10.47;7.20;;;3.50;99.90;;;;;;5055896;28;20209;-85
2022/04/20 04:50:04;;;;;;;7.70;7.00;;;3.60;99.90;;;;;;5056318;28;20534;-87
2022/04/20 04:52:31;;;;;;;8.43;7.53;;;3.60;99.90;;;;;;5055573;28;20167;-86
2022/04/20 04:54:57;;;;;;;9.13;7.20;;;3.60;99.90;;;;;;5055510;28;20258;-87
2022/04/20 04:57:22;;;;;;;7.57;6.77;;;3.60;99.90;;;;;;5055832;28;20206;-85
2022/04/20 04:59:48;;;;;;;9.70;7.33;;;3.60;99.90;;;;;;5054973;28;20178;-86
2022/04/20 05:02:14;;;;;;;8.30;7.13;;;3.60;99.90;;;;;;5055082;28;20182;-86
2022/04/20 05:04:43;;;;;;;8.93;7.07;;;3.70;99.90;;;;;;5054051;28;20212;-85
2022/04/20 05:07:10;;;;;;;7.30;6.60;;;3.70;99.90;;;;;;5063108;28;20521;-86
2022/04/20 05:09:35;;;;;;;10.97;6.57;;;3.70;99.90;;;;;;5072620;28;20165;-85
2022/04/20 05:12:01;;;;;;;8.90;7.17;;;3.70;99.90;;;;;;5086423;28;20240;-86
2022/04/20 05:14:27;;;;;;;8.93;6.90;;;3.70;99.90;;;;;;5081027;28;20188;-85
2022/04/20 05:16:55;;;;;;;9.63;6.70;;;3.70;99.90;;;;;;5070937;28;20186;-85
2022/04/20 05:19:21;;;;;;;10.67;7.20;;;3.70;99.90;;;;;;5049598;28;20188;-85
2022/04/20 05:21:47;;;;;;;8.60;6.60;;;3.80;99.90;;;;;;5063287;28;20177;-86
2022/04/20 05:24:14;;;;;;;8.17;6.27;;;3.80;99.90;;;;;;5063043;28;20222;-85
2022/04/20 05:26:40;;;;;;;8.20;7.33;;;3.90;99.90;;;;;;5061942;28;20180;-85
2022/04/20 05:29:07;;;;;;;9.20;7.20;;;4.00;99.90;;;;;;5056811;28;20669;-85
2022/04/20 05:31:33;;;;;;;7.20;6.50;;;4.10;99.90;;;;;;5056628;28;20186;-85
2022/04/20 05:34:03;;;;;;;9.40;7.67;;;4.10;99.90;;;;;;5060795;28;20181;-85
2022/04/20 05:41:39;;;;;;;8.50;6.87;;;4.10;99.90;;;;;;5063463;28;20263;-86
2022/04/20 05:41:59;;;;;;;9.83;6.70;;;4.30;99.90;;;;;;5070842;28;20204;-85
2022/04/20 05:44:25;;;;;;;7.87;6.73;;;4.40;99.90;;;;;;5056259;28;20206;-85
2022/04/20 05:46:51;;;;;;;7.33;6.63;;;4.50;99.90;;;;;;5058687;28;20546;-86
2022/04/20 05:49:17;;;;;;;8.20;6.93;;;4.50;99.90;;;;;;5067271;28;20189;-85
2022/04/20 05:51:42;;;;;;;9.17;6.67;;;4.60;99.90;;;;;;5061179;28;20188;-86
2022/04/20 05:54:08;;;;;;;10.77;6.73;;;4.70;99.90;;;;;;5052776;28;20705;-86
2022/04/20 05:56:34;;;;;;;12.43;7.00;;;4.80;99.90;;;;;;5054925;28;20646;-86
2022/04/20 05:59:00;;;;;;;9.13;6.50;;;4.80;99.90;;;;;;5053785;28;20184;-86
2022/04/20 06:01:26;;;;;;;13.20;7.17;;;4.90;99.90;;;;;;5053452;28;20171;-85
2022/04/20 06:03:52;;;;;;;9.90;6.80;;;5.00;99.90;;;;;;5055038;28;20214;-85
2022/04/20 06:06:18;;;;;;;6.87;6.17;;;5.10;99.90;;;;;;5053180;28;20591;-86
2022/04/20 06:08:44;;;;;;;8.70;7.10;;;5.20;99.90;;;;;;5052971;28;20197;-86
2022/04/20 06:11:11;;;;;;;9.27;6.77;;;5.20;99.90;;;;;;5052811;28;20239;-86
2022/04/20 06:13:37;;;;;;;8.83;6.80;;;5.20;99.90;;;;;;5053277;28;20179;-86
2022/04/20 06:16:07;;;;;;;7.37;6.00;;;5.30;99.90;;;;;;5035340;28;20190;-86
2022/04/20 06:18:33;;;;;;;10.07;7.10;;;5.40;99.90;;;;;;5052917;28;20617;-85
2022/04/20 06:20:59;;;;;;;7.10;6.13;;;5.40;99.90;;;;;;5054428;28;20179;-84
2022/04/20 06:23:25;;;;;;;9.60;6.03;;;5.40;99.90;;;;;;5057677;28;20561;-84
2022/04/20 06:25:57;;;;;;;6.53;5.90;;;5.30;99.90;;;;;;5039820;28;20608;-85
2022/04/20 06:28:25;;;;;;;11.53;5.70;;;5.30;99.90;;;;;;5053720;28;20247;-85
2022/04/20 06:30:52;;;;;;;7.50;6.27;;;5.40;99.90;;;;;;5054260;28;20182;-84
2022/04/20 06:33:21;;;;;;;7.00;5.57;;;5.50;99.90;;;;;;5053946;28;20261;-86
2022/04/20 06:35:47;;;;;;;7.27;5.83;;;5.60;99.90;;;;;;5052698;28;20174;-86
2022/04/20 06:38:14;;;;;;;6.40;5.23;;;5.80;99.90;;;;;;5053869;28;20237;-86
2022/04/20 06:40:40;;;;;;;7.80;6.00;;;5.90;99.90;;;;;;5054159;28;20192;-86
2022/04/20 06:43:09;;;;;;;5.30;4.87;;;5.90;99.90;;;;;;5053967;28;20533;-89
2022/04/20 06:45:35;;;;;;;6.77;5.03;;;6.00;99.90;;;;;;5054313;28;20533;-88
2022/04/20 06:48:01;;;;;;;5.57;5.07;;;6.00;99.90;;;;;;5054020;28;20171;-86
2022/04/20 06:50:28;;;;;;;4.97;4.47;;;6.10;99.90;;;;;;5053709;28;20184;-86
2022/04/20 06:58:38;;;;;;;5.53;5.03;;;6.30;99.90;;;;;;5053761;28;20194;-87
2022/04/20 07:01:05;;;;;;;5.00;4.60;;;6.30;99.90;;;;;;5053752;28;20155;-87
2022/04/20 07:03:32;;;;;;;5.83;5.40;;;6.50;99.90;;;;;;5051907;28;20192;-86
2022/04/20 07:05:59;;;;;;;6.23;5.27;;;6.50;99.90;;;;;;5053627;28;20203;-85
2022/04/20 07:08:38;;;;;;;11.90;5.43;;;6.60;99.90;;;;;;5053552;28;20171;-84
2022/04/20 07:11:04;;;;;;;5.67;4.87;;;6.60;99.90;;;;;;5053269;28;20235;-84
2022/04/20 07:13:30;;;;;;;5.63;5.20;;;6.80;99.90;;;;;;5052282;28;20174;-85
2022/04/20 07:15:56;;;;;;;5.37;4.97;;;6.70;99.90;;;;;;5053367;28;20170;-85
2022/04/20 07:18:23;;;;;;;5.30;4.90;;;6.90;99.90;;;;;;5053519;28;20175;-83
2022/04/20 07:20:50;;;;;;;6.07;5.57;;;7.00;99.90;;;;;;5053272;28;20177;-87
2022/04/20 07:23:16;;;;;;;6.13;5.53;;;7.10;99.90;;;;;;5053228;28;20231;-85
2022/04/20 07:25:42;;;;;;;6.03;5.43;;;7.20;99.70;;;;;;5053314;28;20198;-86
2022/04/20 07:28:09;;;;;;;6.10;5.60;;;7.20;99.90;;;;;;5052203;28;20634;-86
2022/04/20 07:30:36;;;;;;;6.03;5.43;;;7.30;99.90;;;;;;5052323;28;20561;-86
2022/04/20 07:33:03;;;;;;;7.40;6.80;;;7.40;99.90;;;;;;5051691;28;20195;-86
2022/04/20 07:35:30;;;;;;;8.00;7.30;;;7.60;99.90;;;;;;5035248;28;20178;-86
2022/04/20 07:37:56;;;;;;;8.00;7.20;;;7.70;99.90;;;;;;5051537;28;20287;-86
2022/04/20 07:40:22;;;;;;;8.23;7.43;;;7.80;99.90;;;;;;5052192;28;20184;-86
2022/04/20 07:42:53;;;;;;;13.20;7.73;;;7.80;99.90;;;;;;5053158;28;20259;-86
2022/04/20 07:45:19;;;;;;;8.00;7.27;;;8.00;99.90;;;;;;5053505;28;20671;-86
2022/04/20 07:47:44;;;;;;;8.93;7.50;;;8.00;99.90;;;;;;5053435;28;20176;-86
2022/04/20 07:50:19;;;;;;;8.90;8.10;;;8.20;99.90;;;;;;5055155;28;20190;-85
2022/04/20 07:52:55;;;;;;;10.07;8.37;;;8.10;99.90;;;;;;5052016;28;20743;-86
2022/04/20 07:55:23;;;;;;;9.47;8.40;;;8.20;99.90;;;;;;5053057;28;20168;-85
2022/04/20 07:57:51;;;;;;;10.93;7.67;;;8.30;99.90;;;;;;5053067;28;20255;-84
2022/04/20 08:00:18;;;;;;;9.40;8.50;;;8.40;99.90;;;;;;5052045;28;20632;-85
2022/04/20 08:02:44;;;;;;;9.50;7.23;;;8.40;99.90;;;;;;5053054;28;20189;-84
2022/04/20 08:05:12;;;;;;;9.37;8.47;;;8.40;99.90;;;;;;5053255;28;20597;-84
2022/04/20 08:07:38;;;;;;;9.00;7.77;;;8.40;99.90;;;;;;5053730;28;20190;-84
2022/04/20 08:10:08;;;;;;;9.37;8.37;;;8.50;99.90;;;;;;5054134;28;20629;-85
2022/04/20 08:12:44;;;;;;;10.20;8.50;;;8.60;99.90;;;;;;5052657;28;20221;-86
2022/04/20 08:15:11;;;;;;;11.40;8.10;;;8.60;99.90;;;;;;5051484;28;20178;-86
2022/04/20 08:17:38;;;;;;;9.33;8.10;;;8.60;99.60;;;;;;5051994;28;20590;-86
2022/04/20 08:20:05;;;;;;;8.90;7.70;;;8.70;99.80;;;;;;5056585;28;20535;-87
2022/04/20 08:22:31;;;;;;;7.37;6.60;;;8.70;99.90;;;;;;5056873;28;20174;-86
2022/04/20 08:24:57;;;;;;;9.87;6.83;;;8.70;98.70;;;;;;5056994;28;20210;-87
2022/04/20 08:27:23;;;;;;;7.20;6.53;;;8.80;98.10;;;;;;5057312;28;20208;-85
2022/04/20 08:29:51;;;;;;;7.00;6.40;;;8.90;98.20;;;;;;5055163;28;20186;-88
2022/04/20 08:32:18;;;;;;;6.30;5.70;;;9.00;96.20;;;;;;5055210;28;20209;-87
2022/04/20 08:34:44;;;;;;;8.87;6.60;;;8.90;95.90;;;;;;5054855;28;20217;-87
2022/04/20 08:37:10;;;;;;;5.83;5.37;;;9.00;96.80;;;;;;5056280;28;20192;-87
2022/04/20 08:39:38;;;;;;;5.17;4.57;;;9.00;96.10;;;;;;5056084;28;20186;-87
2022/04/20 08:42:07;;;;;;;5.73;5.20;;;9.10;94.80;;;;;;5054610;28;20268;-87
2022/04/20 08:44:36;;;;;;;5.40;4.97;;;9.20;94.30;;;;;;5054656;28;20603;-87
2022/04/20 08:47:02;;;;;;;4.77;4.37;;;9.20;94.20;;;;;;5054402;28;20317;-87
2022/04/20 08:49:28;;;;;;;5.13;4.73;;;9.20;93.80;;;;;;5055943;28;20263;-87
2022/04/20 08:54:39;;;;;;;4.60;4.30;;;9.30;92.20;;;;;;5056165;28;20185;-87
2022/04/20 08:57:19;;;;;;;4.47;4.17;;;9.40;92.30;;;;;;5055740;28;20219;-86
2022/04/20 08:59:51;;;;;;;4.40;4.10;;;9.40;92.90;;;;;;5055756;28;20168;-87
2022/04/20 09:02:18;;;;;;;4.63;4.33;;;9.60;91.80;;;;;;5055656;28;20610;-88
2022/04/20 09:04:44;;;;;;;4.67;4.33;;;9.70;90.10;;;;;;5054385;28;20298;-87
2022/04/20 09:07:12;;;;;;;4.13;3.90;;;9.60;90.50;;;;;;5056154;28;20171;-86
2022/04/20 09:09:38;;;;;;;4.33;4.07;;;9.70;91.70;;;;;;5055379;28;20181;-85
2022/04/20 09:12:18;;;;;;;4.43;4.03;;;9.70;92.00;;;;;;5053949;28;20307;-86
2022/04/20 09:14:48;;;;;;;4.87;4.50;;;9.80;91.80;;;;;;5054172;28;20254;-86
2022/04/20 09:17:17;;;;;;;4.37;3.97;;;9.90;91.80;;;;;;5054587;28;20192;-86
2022/04/20 09:19:53;;;;;;;4.57;4.13;;;9.90;90.50;;;;;;5055348;28;20186;-87
2022/04/20 09:22:26;;;;;;;4.70;4.40;;;9.90;89.60;;;;;;5055298;28;20163;-86
2022/04/20 09:25:11;;;;;;;4.67;4.27;;;9.80;89.10;;;;;;5053970;28;20238;-86
2022/04/20 09:27:42;;;;;;;4.43;4.13;;;9.90;88.60;;;;;;5055309;28;20170;-86
2022/04/20 09:30:15;;;;;;;5.63;5.23;;;10.00;85.30;;;;;;5053986;28;20276;-86
2022/04/20 09:32:43;;;;;;;5.33;4.83;;;10.10;85.50;;;;;;5053740;28;20168;-86
2022/04/20 09:35:12;;;;;;;5.13;4.60;;;10.20;88.30;;;;;;5053693;28;20179;-86
2022/04/20 09:37:39;;;;;;;4.80;4.50;;;10.20;90.20;;;;;;5054918;28;20262;-86
2022/04/20 09:40:11;;;;;;;5.03;4.63;;;10.20;89.30;;;;;;5054987;28;20650;-86
2022/04/20 09:42:37;;;;;;;5.43;4.43;;;10.40;88.40;;;;;;5055047;28;20619;-86
2022/04/20 09:45:06;;;;;;;4.90;4.60;;;10.40;87.70;;;;;;5054639;28;20231;-86
2022/04/20 09:50:24;;;;;;;5.00;4.60;;;10.60;90.50;;;;;;5054807;28;20205;-86
2022/04/20 09:52:54;;;;;;;4.63;4.33;;;10.80;86.30;;;;;;5054688;28;20161;-86
2022/04/20 09:55:37;;;;;;;4.30;4.00;;;10.70;85.90;;;;;;5054795;28;20157;-86
2022/04/20 09:58:10;;;;;;;4.90;4.50;;;10.70;85.10;;;;;;5063972;28;20173;-85
2022/04/20 10:00:41;;;;;;;4.47;4.17;;;10.60;84.60;;;;;;5055250;28;20181;-86
2022/04/20 10:03:07;;;;;;;4.40;4.20;;;10.70;85.50;;;;;;5053207;28;20176;-86
2022/04/20 10:05:33;;;;;;;6.60;4.30;;;10.70;85.70;;;;;;5053029;28;20182;-86
2022/04/20 10:07:59;;;;;;;4.43;4.10;;;10.70;85.30;;;;;;5053061;28;20180;-85
2022/04/20 10:10:30;;;;;;;4.80;4.40;;;10.70;87.20;;;;;;5054235;28;20186;-85
2022/04/20 10:12:56;;;;;;;4.37;4.07;;;10.90;85.80;;;;;;5054446;28;20165;-85
2022/04/20 10:18:19;;;;;;;6.03;4.67;;;11.20;86.90;;;;;;5054840;28;20237;-85
2022/04/20 10:20:50;;;;;;;4.33;3.97;;;11.30;85.20;;;;;;5036374;28;20598;-86
2022/04/20 10:23:21;;;;;;;5.07;4.57;;;11.30;83.80;;;;;;5054460;28;20182;-85
2022/04/20 10:25:49;;;;;;;4.80;4.50;;;11.20;86.30;;;;;;5059825;28;20430;-86
2022/04/20 10:28:36;;;;;;;5.03;4.53;;;11.30;88.40;;;;;;5055243;28;20202;-85
2022/04/20 10:31:15;;;;;;;5.03;4.70;;;11.40;86.70;;;;;;5054530;28;20243;-85
2022/04/20 10:33:42;;;;;;;4.40;4.10;;;11.50;83.00;;;;;;5056384;28;20162;-87
2022/04/20 10:36:11;;;;;;;4.80;4.40;;;11.50;84.00;;;;;;5060345;28;20199;-86
2022/04/20 10:38:38;;;;;;;4.83;4.30;;;11.40;81.60;;;;;;5062220;28;20177;-87
2022/04/20 10:41:12;;;;;;;4.63;4.37;;;11.40;81.30;;;;;;5069192;28;20643;-87
2022/04/20 10:43:41;;;;;;;4.50;4.10;;;11.50;82.30;;;;;;5058740;28;20280;-87
2022/04/20 10:46:20;;;;;;;4.53;4.13;;;11.60;81.30;;;;;;5058808;28;20182;-86
2022/04/20 10:49:02;;;;;;;4.20;3.93;;;11.60;82.20;;;;;;5056248;28;20196;-86
2022/04/20 10:51:34;;;;;;;4.30;4.10;;;11.70;82.50;;;;;;5055094;28;20677;-86
2022/04/20 10:54:17;;;;;;;4.57;4.30;;;11.80;81.50;;;;;;5054980;28;20201;-87
2022/04/20 10:57:11;;;;;;;4.40;4.00;;;11.70;78.40;;;;;;5054367;28;20177;-87
2022/04/20 10:59:39;;;;;;;6.10;4.17;;;11.70;81.70;;;;;;5050387;28;20180;-86
2022/04/20 11:02:07;;;;;;;4.03;3.80;;;11.70;83.20;;;;;;5035745;28;20175;-86
2022/04/20 11:04:46;;;;;;;4.53;4.23;;;11.70;83.30;;;;;;5053380;28;20236;-87
2022/04/20 11:07:17;;;;;;;4.67;4.30;;;11.80;84.50;;;;;;5053621;28;20180;-86
2022/04/20 11:09:44;;;;;;;4.40;4.10;;;11.90;82.50;;;;;;5052310;28;20591;-87
2022/04/20 11:21:04;;;;;;;4.47;4.17;;;12.00;76.90;;;;;;5073539;28;20189;-86
2022/04/20 11:23:58;;;;;;;4.50;4.20;;;11.80;77.90;;;;;;5055237;28;20210;-86
2022/04/20 11:26:28;;;;;;;5.00;4.57;;;11.70;79.80;;;;;;5067613;28;20238;-86
2022/04/20 11:29:22;;;;;;;5.77;4.10;;;11.80;80.60;;;;;;5062212;28;20212;-85
2022/04/20 11:32:10;;;;;;;4.10;3.90;;;11.80;77.40;;;;;;5071805;28;20234;-87
2022/04/20 11:34:39;;;;;;;4.60;4.30;;;11.80;80.00;;;;;;5074359;28;20675;-86
2022/04/20 11:37:06;;;;;;;4.47;4.17;;;11.90;78.90;;;;;;5071100;28;20169;-87
2022/04/20 11:39:33;;;;;;;4.80;4.50;;;12.10;79.70;;;;;;5089590;28;20728;-86
2022/04/20 11:42:02;;;;;;;4.00;3.80;;;12.20;78.50;;;;;;5074068;28;20625;-87
2022/04/20 11:44:34;;;;;;;4.30;4.00;;;12.20;81.10;;;;;;5056352;28;20210;-87
2022/04/20 11:47:07;;;;;;;3.97;3.77;;;12.30;77.60;;;;;;5080873;28;20176;-87
2022/04/20 11:49:40;;;;;;;4.10;3.80;;;12.30;74.70;;;;;;5074126;28;20181;-88
2022/04/20 11:52:11;;;;;;;4.20;3.90;;;12.30;75.70;;;;;;5072141;28;20241;-86
2022/04/20 11:54:38;;;;;;;4.03;3.73;;;12.20;73.90;;;;;;5097156;28;20166;-87
2022/04/20 11:57:06;;;;;;;4.17;3.87;;;12.30;74.80;;;;;;5097337;28;20169;-87
2022/04/20 11:59:32;;;;;;;5.73;4.43;;;12.30;76.60;;;;;;5060824;28;20218;-87
2022/04/20 12:01:58;;;;;;;4.33;4.13;;;12.30;77.70;;;;;;5073496;28;20203;-87
2022/04/20 12:04:28;;;;;;;4.80;4.30;;;12.30;77.10;;;;;;5072837;28;20212;-87
2022/04/20 12:06:56;;;;;;;4.77;4.27;;;12.40;76.10;;;;;;5056261;28;20181;-87
2022/04/20 12:09:24;;;;;;;4.03;3.73;;;12.30;76.70;;;;;;5055069;28;20196;-87
2022/04/20 12:12:19;;;;;;;5.30;4.90;;;12.30;74.40;;;;;;5058190;28;20585;-86
2022/04/20 12:14:46;;;;;;;4.13;3.50;;;12.30;74.70;;;;;;5054342;28;20190;-87
2022/04/20 12:17:14;;;;;;;3.60;3.50;;;12.30;76.60;;;;;;5059327;28;20559;-87
2022/04/20 12:19:42;;;;;;;3.60;3.30;;;12.40;77.30;;;;;;5058859;28;20195;-86
2022/04/20 12:22:21;;;;;;;4.00;3.80;;;12.50;75.90;;;;;;5060369;28;20182;-86
2022/04/20 12:24:48;;;;;;;3.90;3.70;;;12.40;73.00;;;;;;5086763;28;20557;-87
2022/04/20 12:27:22;;;;;;;3.90;3.70;;;12.40;74.60;;;;;;5060014;28;20172;-87
2022/04/20 12:29:56;;;;;;;3.40;3.20;;;12.50;75.40;;;;;;5076429;28;20213;-87
2022/04/20 12:32:41;;;;;;;3.63;3.50;;;12.50;75.10;;;;;;5076340;28;20195;-87
2022/04/20 12:35:07;;;;;;;3.13;2.97;;;12.50;75.70;;;;;;5076179;28;20158;-87
2022/04/20 12:37:35;;;;;;;3.47;3.27;;;12.60;75.80;;;;;;5058108;28;20556;-87
2022/04/20 12:40:25;;;;;;;3.30;3.10;;;12.60;76.80;;;;;;5075964;28;20172;-87
2022/04/20 12:43:09;;;;;;;3.00;2.90;;;12.60;78.00;;;;;;5076117;28;20180;-87
2022/04/20 12:45:35;;;;;;;3.50;3.30;;;12.60;74.60;;;;;;5058339;28;20584;-88
2022/04/20 12:48:05;;;;;;;3.43;3.13;;;12.70;76.00;;;;;;5075921;28;20572;-86
2022/04/20 12:50:44;;;;;;;3.63;3.33;;;12.70;76.90;;;;;;5076146;28;20232;-87
2022/04/20 12:53:10;;;;;;;4.00;3.40;;;12.70;77.80;;;;;;5075959;28;20518;-86
2022/04/20 12:55:39;;;;;;;3.40;3.30;;;12.80;77.30;;;;;;5075882;28;20182;-87
2022/04/20 13:03:46;;;;;;;3.77;3.63;;;12.80;75.20;;;;;;5075708;28;20210;-87
2022/04/20 13:06:13;;;;;;;3.77;3.57;;;12.80;75.50;;;;;;5057599;28;20265;-87
2022/04/20 13:08:41;;;;;;;3.63;3.43;;;12.80;75.80;;;;;;5075668;28;20178;-87
2022/04/20 13:11:11;;;;;;;5.27;3.70;;;12.80;77.80;;;;;;5075738;28;20212;-87
2022/04/20 13:13:36;;;;;;;3.93;3.63;;;12.80;76.80;;;;;;5075572;28;20265;-87
2022/04/20 13:16:03;;;;;;;3.60;3.40;;;12.90;74.80;;;;;;5057549;28;20602;-87
2022/04/20 13:18:29;;;;;;;3.47;3.37;;;12.90;75.10;;;;;;5057478;28;20182;-87
2022/04/20 13:20:55;;;;;;;3.60;3.40;;;12.90;74.20;;;;;;5057505;28;20542;-87
2022/04/20 13:23:21;;;;;;;3.47;3.27;;;12.80;72.90;;;;;;5075315;28;20171;-87
2022/04/20 13:28:31;;;;;;;3.80;3.50;;;12.70;75.50;;;;;;5075705;28;20232;-87
2022/04/20 13:30:57;;;;;;;3.50;3.30;;;12.70;74.00;;;;;;5075112;28;20172;-87
2022/04/20 13:33:23;;;;;;;3.50;3.30;;;12.70;73.20;;;;;;5075357;28;20179;-87
2022/04/20 13:35:52;;;;;;;3.90;3.70;;;12.60;73.70;;;;;;5057166;28;20176;-87
2022/04/20 13:38:18;;;;;;;4.20;3.90;;;12.60;73.60;;;;;;5075332;28;20691;-87
2022/04/20 13:40:44;;;;;;;3.90;3.63;;;12.50;74.30;;;;;;5075140;28;20185;-87